< < Back
Terminal Aerodrome Forecast


Current Version              Previous Versions:   1  2  3  4  5  6  7  8  9  

Terminal Aerodrome Forecast

084
FTUS42 KCAE 282213 AAC
TAFCAE
TAF AMD
KCAE 282213Z 2822/2918 08005KT P6SM VCSH SCT035 BKN100
      TEMPO 2822/2824 08025KT 5SM SHRA BKN035
     FM290000 07008KT 5SM -SHRA BR SCT025 OVC035
     FM290400 04005KT 4SM SHRA BR BKN020 OVC040
     FM291400 35009G17KT 5SM -SHRA BR SCT010 BKN020 OVC040=



Latest METAR

373
SAUS80 KWBC 290700 CCA
MTRCAE
METAR KCAE 290656Z 32008KT 10SM -RA BKN034 BKN045 OVC055 22/19 A3004 RMK
AO2 RAE0559B39 SLP168 P0000 T02170194


USA.gov is the U.S. government's official web portal to all federal, state and local government web resources and services.